^^
Grace C. Lehan Memorial Weather Station Historical Data
Daily Summary for October 15, 2021 Units:  Both    English   Metric
Daily Weekly Monthly Yearly
  High: Low: Average:
Temperature: 79.7 °F /  26.5 °C 57.6 °F /  14.2 °C 67.5 °F /  19.7 °C
Dew Point: 66.4 °F /  19.1 °C 56.2 °F /  13.4 °C 61.4 °F /  16.3 °C
Humidity: 96% 60.7% 82%
Wind Speed: 2mph /  3.2km/h - 0.1mph /  0.2km/h
Wind Gust: 9mph /  14.5km/h - -
Wind- - WSW
Pressure: 29.92 in /  1013.1 hPa 29.83 in /  1010 hPa -
Precipitation: 0.00 in /  0 mm    
 
 
Tabular Data for October 15, 2021
Time Temperature Dew Point Pressure Wind Wind Speed Wind Gust Humidity Rainfall Rate (Hourly) solar
00:00 63 °F /  17.2 °C 59.7 °F /  15.4 °C 29.88in /  1011.7hPa Calm     89% 0.00in /  0mm 0 W/m2
00:09 62.8 °F /  17.1 °C 59.8 °F /  15.4 °C 29.88in /  1011.7hPa Calm     90% 0.00in /  0mm 0 W/m2
00:14 62.7 °F /  17.1 °C 59.7 °F /  15.4 °C 29.88in /  1011.7hPa Calm     90% 0.00in /  0mm 0 W/m2
00:19 62.6 °F /  17 °C 59.7 °F /  15.4 °C 29.88in /  1011.7hPa Calm     90.3% 0.00in /  0mm 0 W/m2
00:24 62.5 °F /  16.9 °C 59.6 °F /  15.3 °C 29.88in /  1011.7hPa Calm     90% 0.00in /  0mm 0 W/m2
00:29 62.4 °F /  16.9 °C 59.4 °F /  15.2 °C 29.88in /  1011.7hPa Calm     90% 0.00in /  0mm 0 W/m2
00:34 62.3 °F /  16.8 °C 59.6 °F /  15.3 °C 29.88in /  1011.7hPa Calm     91% 0.00in /  0mm 0 W/m2
00:39 62.2 °F /  16.8 °C 59.6 °F /  15.3 °C 29.88in /  1011.7hPa Calm     91% 0.00in /  0mm 0 W/m2
00:44 62.2 °F /  16.8 °C 59.5 °F /  15.3 °C 29.88in /  1011.7hPa Calm     91% 0.00in /  0mm 0 W/m2
00:49 62.1 °F /  16.7 °C 59.5 °F /  15.3 °C 29.89in /  1012.1hPa Calm     91% 0.00in /  0mm 0 W/m2
00:54 62 °F /  16.7 °C 59.4 °F /  15.2 °C 29.89in /  1012.1hPa Calm     91% 0.00in /  0mm 0 W/m2
00:59 62 °F /  16.7 °C 59.4 °F /  15.2 °C 29.88in /  1011.7hPa Calm     91.2% 0.00in /  0mm 0 W/m2
01:04 61.9 °F /  16.6 °C 59.6 °F /  15.3 °C 29.88in /  1011.7hPa Calm     92% 0.00in /  0mm 0 W/m2
01:09 61.9 °F /  16.6 °C 59.6 °F /  15.3 °C 29.88in /  1011.7hPa Calm     92% 0.00in /  0mm 0 W/m2
01:14 61.9 °F /  16.6 °C 59.5 °F /  15.3 °C 29.88in /  1011.7hPa Calm     92% 0.00in /  0mm 0 W/m2
01:19 61.8 °F /  16.6 °C 59.5 °F /  15.3 °C 29.88in /  1011.7hPa Calm     92% 0.00in /  0mm 0 W/m2
01:24 61.8 °F /  16.6 °C 59.4 °F /  15.2 °C 29.88in /  1011.7hPa Calm     92% 0.00in /  0mm 0 W/m2
01:29 61.7 °F /  16.5 °C 59.3 °F /  15.2 °C 29.88in /  1011.7hPa Calm     92% 0.00in /  0mm 0 W/m2
01:34 61.6 °F /  16.4 °C 59.2 °F /  15.1 °C 29.88in /  1011.7hPa Calm     92% 0.00in /  0mm 0 W/m2
01:39 61.4 °F /  16.3 °C 59.1 °F /  15.1 °C 29.88in /  1011.7hPa Calm     92% 0.00in /  0mm 0 W/m2
01:44 61.4 °F /  16.3 °C 59 °F /  15 °C 29.88in /  1011.7hPa Calm     92% 0.00in /  0mm 0 W/m2
01:49 61.3 °F /  16.3 °C 58.9 °F /  14.9 °C 29.88in /  1011.7hPa Calm     92% 0.00in /  0mm 0 W/m2
01:54 61.2 °F /  16.2 °C 58.9 °F /  14.9 °C 29.88in /  1011.7hPa Calm     92.2% 0.00in /  0mm 0 W/m2
01:59 61.1 °F /  16.2 °C 59.1 °F /  15.1 °C 29.88in /  1011.7hPa Calm     93% 0.00in /  0mm 0 W/m2
02:04 61 °F /  16.1 °C 59 °F /  15 °C 29.88in /  1011.7hPa Calm     93% 0.00in /  0mm 0 W/m2
02:09 61 °F /  16.1 °C 59 °F /  15 °C 29.88in /  1011.7hPa Calm     93% 0.00in /  0mm 0 W/m2
02:14 60.9 °F /  16.1 °C 58.9 °F /  14.9 °C 29.88in /  1011.7hPa Calm     93% 0.00in /  0mm 0 W/m2
02:19 60.8 °F /  16 °C 58.8 °F /  14.9 °C 29.89in /  1012.1hPa Calm     93% 0.00in /  0mm 0 W/m2
02:24 60.7 °F /  15.9 °C 58.7 °F /  14.8 °C 29.89in /  1012.1hPa Calm     93% 0.00in /  0mm 0 W/m2
02:29 60.6 °F /  15.9 °C 58.5 °F /  14.7 °C 29.88in /  1011.7hPa Calm     93% 0.00in /  0mm 0 W/m2
02:34 60.4 °F /  15.8 °C 58.4 °F /  14.7 °C 29.88in /  1011.7hPa Calm     93% 0.00in /  0mm 0 W/m2
02:39 60.3 °F /  15.7 °C 58.3 °F /  14.6 °C 29.88in /  1011.7hPa Calm     93% 0.00in /  0mm 0 W/m2
02:44 60.3 °F /  15.7 °C 58.2 °F /  14.6 °C 29.88in /  1011.7hPa Calm     93% 0.00in /  0mm 0 W/m2
02:49 60.2 °F /  15.7 °C 58.2 °F /  14.6 °C 29.88in /  1011.7hPa Calm     93% 0.00in /  0mm 0 W/m2
02:54 60.1 °F /  15.6 °C 58.1 °F /  14.5 °C 29.88in /  1011.7hPa Calm     93% 0.00in /  0mm 0 W/m2
02:59 60 °F /  15.6 °C 58 °F /  14.4 °C 29.88in /  1011.7hPa Calm     93% 0.00in /  0mm 0 W/m2
03:04 60 °F /  15.6 °C 58 °F /  14.4 °C 29.88in /  1011.7hPa Calm     93% 0.00in /  0mm 0 W/m2
03:09 59.9 °F /  15.5 °C 57.9 °F /  14.4 °C 29.88in /  1011.7hPa Calm     93% 0.00in /  0mm 0 W/m2
03:14 59.9 °F /  15.5 °C 57.9 °F /  14.4 °C 29.88in /  1011.7hPa Calm     93% 0.00in /  0mm 0 W/m2
03:19 59.8 °F /  15.4 °C 57.8 °F /  14.3 °C 29.88in /  1011.7hPa Calm     93% 0.00in /  0mm 0 W/m2
03:24 59.8 °F /  15.4 °C 57.8 °F /  14.3 °C 29.88in /  1011.7hPa Calm     93% 0.00in /  0mm 0 W/m2
03:29 59.7 °F /  15.4 °C 57.7 °F /  14.3 °C 29.88in /  1011.7hPa Calm     93% 0.00in /  0mm 0 W/m2
03:34 59.6 °F /  15.3 °C 57.6 °F /  14.2 °C 29.88in /  1011.7hPa Calm     93% 0.00in /  0mm 0 W/m2
03:39 59.5 °F /  15.3 °C 57.5 °F /  14.2 °C 29.88in /  1011.7hPa Calm     93% 0.00in /  0mm 0 W/m2
03:44 59.4 °F /  15.2 °C 57.4 °F /  14.1 °C 29.89in /  1012.1hPa Calm     93% 0.00in /  0mm 0 W/m2
03:49 59.3 °F /  15.2 °C 57.3 °F /  14.1 °C 29.89in /  1012.1hPa Calm     93% 0.00in /  0mm 0 W/m2
03:54 59.2 °F /  15.1 °C 57.4 °F /  14.1 °C 29.89in /  1012.1hPa Calm     93.5% 0.00in /  0mm 0 W/m2
03:59 59.2 °F /  15.1 °C 57.5 °F /  14.2 °C 29.89in /  1012.1hPa Calm     94% 0.00in /  0mm 0 W/m2
04:00 59.3 °F /  15.2 °C 57.6 °F /  14.2 °C 29.89in /  1012.1hPa Calm     94% 0.00in /  0mm 0 W/m2
04:09 59.3 °F /  15.2 °C 57.6 °F /  14.2 °C 29.89in /  1012.1hPa Calm     94% 0.00in /  0mm 0 W/m2
04:14 59.3 °F /  15.2 °C 57.6 °F /  14.2 °C 29.89in /  1012.1hPa Calm     94% 0.00in /  0mm 0 W/m2
04:19 59.3 °F /  15.2 °C 57.6 °F /  14.2 °C 29.89in /  1012.1hPa Calm     94% 0.00in /  0mm 0 W/m2
04:24 59.3 °F /  15.2 °C 57.5 °F /  14.2 °C 29.89in /  1012.1hPa Calm     94% 0.00in /  0mm 0 W/m2
04:29 59.1 °F /  15.1 °C 57.4 °F /  14.1 °C 29.88in /  1011.7hPa Calm     94% 0.00in /  0mm 0 W/m2
04:34 59 °F /  15 °C 57.3 °F /  14.1 °C 29.88in /  1011.7hPa Calm     94% 0.00in /  0mm 0 W/m2
04:39 58.9 °F /  14.9 °C 57.2 °F /  14 °C 29.89in /  1012.1hPa Calm     94% 0.00in /  0mm 0 W/m2
04:44 58.8 °F /  14.9 °C 57.1 °F /  13.9 °C 29.89in /  1012.1hPa Calm     94% 0.00in /  0mm 0 W/m2
04:49 58.7 °F /  14.8 °C 57 °F /  13.9 °C 29.89in /  1012.1hPa Calm     94% 0.00in /  0mm 0 W/m2
04:54 58.6 °F /  14.8 °C 56.8 °F /  13.8 °C 29.89in /  1012.1hPa Calm     94% 0.00in /  0mm 0 W/m2
04:59 58.4 °F /  14.7 °C 56.7 °F /  13.7 °C 29.88in /  1011.7hPa Calm     94% 0.00in /  0mm 0 W/m2
05:04 58.3 °F /  14.6 °C 56.6 °F /  13.7 °C 29.88in /  1011.7hPa Calm     94% 0.00in /  0mm 0 W/m2
05:09 58.2 °F /  14.6 °C 56.5 °F /  13.6 °C 29.88in /  1011.7hPa Calm     94% 0.00in /  0mm 0 W/m2
05:14 58.1 °F /  14.5 °C 56.4 °F /  13.6 °C 29.89in /  1012.1hPa Calm     94% 0.00in /  0mm 0 W/m2
05:19 58 °F /  14.4 °C 56.3 °F /  13.5 °C 29.89in /  1012.1hPa Calm     94% 0.00in /  0mm 0 W/m2
05:24 58 °F /  14.4 °C 56.3 °F /  13.5 °C 29.89in /  1012.1hPa Calm     94% 0.00in /  0mm 0 W/m2
05:29 57.9 °F /  14.4 °C 56.2 °F /  13.4 °C 29.89in /  1012.1hPa Calm     94% 0.00in /  0mm 0 W/m2
05:34 57.9 °F /  14.4 °C 56.2 °F /  13.4 °C 29.89in /  1012.1hPa Calm     94% 0.00in /  0mm 0 W/m2
05:39 57.9 °F /  14.4 °C 56.2 °F /  13.4 °C 29.89in /  1012.1hPa Calm     94% 0.00in /  0mm 0 W/m2
05:44 57.9 °F /  14.4 °C 56.2 °F /  13.4 °C 29.89in /  1012.1hPa Calm     94% 0.00in /  0mm 0 W/m2
05:49 57.9 °F /  14.4 °C 56.2 °F /  13.4 °C 29.89in /  1012.1hPa Calm     94% 0.00in /  0mm 0 W/m2
05:54 57.9 °F /  14.4 °C 56.2 °F /  13.4 °C 29.89in /  1012.1hPa Calm     94% 0.00in /  0mm 0 W/m2
05:59 57.9 °F /  14.4 °C 56.2 °F /  13.4 °C 29.89in /  1012.1hPa Calm     94% 0.00in /  0mm 0 W/m2
06:04 57.9 °F /  14.4 °C 56.3 °F /  13.5 °C 29.89in /  1012.1hPa Calm     94.6% 0.00in /  0mm 0 W/m2
06:09 57.9 °F /  14.4 °C 56.5 °F /  13.6 °C 29.89in /  1012.1hPa Calm     95% 0.00in /  0mm 0 W/m2
06:14 57.9 °F /  14.4 °C 56.5 °F /  13.6 °C 29.89in /  1012.1hPa Calm     95% 0.00in /  0mm 0 W/m2
06:19 57.9 °F /  14.4 °C 56.5 °F /  13.6 °C 29.90in /  1012.4hPa Calm     95% 0.00in /  0mm 0 W/m2
06:24 57.8 °F /  14.3 °C 56.4 °F /  13.6 °C 29.90in /  1012.4hPa Calm     95% 0.00in /  0mm 0 W/m2
06:29 57.8 °F /  14.3 °C 56.4 °F /  13.6 °C 29.90in /  1012.4hPa Calm     95% 0.00in /  0mm 0 W/m2
06:34 57.8 °F /  14.3 °C 56.4 °F /  13.6 °C 29.90in /  1012.4hPa Calm     95% 0.00in /  0mm 0 W/m2
06:39 57.7 °F /  14.3 °C 56.3 °F /  13.5 °C 29.90in /  1012.4hPa Calm     95% 0.00in /  0mm 0 W/m2
06:44 57.7 °F /  14.3 °C 56.2 °F /  13.4 °C 29.90in /  1012.4hPa Calm     95% 0.00in /  0mm 0 W/m2
06:49 57.6 °F /  14.2 °C 56.2 °F /  13.4 °C 29.90in /  1012.4hPa Calm     95% 0.00in /  0mm 0 W/m2
06:54 57.6 °F /  14.2 °C 56.2 °F /  13.4 °C 29.90in /  1012.4hPa Calm     95% 0.00in /  0mm 0 W/m2
06:59 57.6 °F /  14.2 °C 56.2 °F /  13.4 °C 29.90in /  1012.4hPa Calm     95% 0.00in /  0mm 0 W/m2
07:04 57.7 °F /  14.3 °C 56.3 °F /  13.5 °C 29.90in /  1012.4hPa Calm     95% 0.00in /  0mm 5 W/m2
07:09 57.7 °F /  14.3 °C 56.3 °F /  13.5 °C 29.90in /  1012.4hPa Calm     95% 0.00in /  0mm 7 W/m2
07:14 57.8 °F /  14.3 °C 56.4 °F /  13.6 °C 29.90in /  1012.4hPa Calm     95% 0.00in /  0mm 11 W/m2
07:19 57.8 °F /  14.3 °C 56.4 °F /  13.6 °C 29.90in /  1012.4hPa Calm     95% 0.00in /  0mm 16 W/m2
07:24 57.9 °F /  14.4 °C 56.4 °F /  13.6 °C 29.90in /  1012.4hPa Calm     95% 0.00in /  0mm 26 W/m2
07:29 57.9 °F /  14.4 °C 56.5 °F /  13.6 °C 29.91in /  1012.8hPa Calm     95% 0.00in /  0mm 33 W/m2
07:34 58 °F /  14.4 °C 56.6 °F /  13.7 °C 29.91in /  1012.8hPa Calm     95% 0.00in /  0mm 37 W/m2
07:39 58.1 °F /  14.5 °C 56.7 °F /  13.7 °C 29.91in /  1012.8hPa Calm     95% 0.00in /  0mm 47 W/m2
07:44 58.3 °F /  14.6 °C 56.9 °F /  13.8 °C 29.91in /  1012.8hPa Calm     95.1% 0.00in /  0mm 47 W/m2
07:49 58.5 °F /  14.7 °C 57.4 °F /  14.1 °C 29.90in /  1012.4hPa Calm     96% 0.00in /  0mm 53 W/m2
07:54 58.7 °F /  14.8 °C 57.6 °F /  14.2 °C 29.90in /  1012.4hPa Calm     96% 0.00in /  0mm 53 W/m2
07:59 58.9 °F /  14.9 °C 57.8 °F /  14.3 °C 29.90in /  1012.4hPa Calm     96% 0.00in /  0mm 54 W/m2
08:09 59.5 °F /  15.3 °C 58.3 °F /  14.6 °C 29.90in /  1012.4hPa Calm     96% 0.00in /  0mm 72 W/m2
08:14 59.9 °F /  15.5 °C 58.7 °F /  14.8 °C 29.89in /  1012.1hPa Calm     96% 0.00in /  0mm 70 W/m2
08:19 60.2 °F /  15.7 °C 59 °F /  15 °C 29.90in /  1012.4hPa Calm     96% 0.00in /  0mm 67 W/m2
08:24 60.4 °F /  15.8 °C 59.3 °F /  15.2 °C 29.90in /  1012.4hPa Calm     96% 0.00in /  0mm 70 W/m2
08:29 60.6 °F /  15.9 °C 59.5 °F /  15.3 °C 29.90in /  1012.4hPa Calm     96% 0.00in /  0mm 72 W/m2
08:34 60.9 °F /  16.1 °C 59.7 °F /  15.4 °C 29.90in /  1012.4hPa Calm     96% 0.00in /  0mm 67 W/m2
08:39 61.1 °F /  16.2 °C 59.9 °F /  15.5 °C 29.91in /  1012.8hPa Calm     96% 0.00in /  0mm 90 W/m2
08:44 61.3 °F /  16.3 °C 60.1 °F /  15.6 °C 29.91in /  1012.8hPa Calm     96% 0.00in /  0mm 98 W/m2
08:49 61.5 °F /  16.4 °C 60.4 °F /  15.8 °C 29.91in /  1012.8hPa Calm     96% 0.00in /  0mm 165 W/m2
08:54 61.7 °F /  16.5 °C 60.6 °F /  15.9 °C 29.91in /  1012.8hPa Calm     96% 0.00in /  0mm 151 W/m2
08:59 62.1 °F /  16.7 °C 60.9 °F /  16.1 °C 29.91in /  1012.8hPa Calm     96% 0.00in /  0mm 288 W/m2
09:04 62.6 °F /  17 °C 61.5 °F /  16.4 °C 29.91in /  1012.8hPa Calm     96% 0.00in /  0mm 288 W/m2
09:09 63.2 °F /  17.3 °C 62 °F /  16.7 °C 29.91in /  1012.8hPa Calm     96% 0.00in /  0mm 267 W/m2
09:14 63.7 °F /  17.6 °C 62.2 °F /  16.8 °C 29.91in /  1012.8hPa Calm     95% 0.00in /  0mm 209 W/m2
09:19 64.3 °F /  17.9 °C 62.7 °F /  17.1 °C 29.91in /  1012.8hPa Calm     94.4% 0.00in /  0mm 373 W/m2
09:24 65.4 °F /  18.6 °C 63.6 °F /  17.6 °C 29.91in /  1012.8hPa Calm     93.9% 0.00in /  0mm 378 W/m2
09:29 66.6 °F /  19.2 °C 64.1 °F /  17.8 °C 29.91in /  1012.8hPa Calm     91.9% 0.00in /  0mm 418 W/m2
09:34 67.8 °F /  19.9 °C 64.5 °F /  18.1 °C 29.91in /  1012.8hPa Calm     89.2% 0.00in /  0mm 473 W/m2
09:39 69.1 °F /  20.6 °C 65.1 °F /  18.4 °C 29.91in /  1012.8hPa Calm     86.9% 0.00in /  0mm 508 W/m2
09:44 70.5 °F /  21.4 °C 65.3 °F /  18.5 °C 29.91in /  1012.8hPa Calm     83.8% 0.00in /  0mm 517 W/m2
09:49 71.3 °F /  21.8 °C 65 °F /  18.3 °C 29.91in /  1012.8hPa Calm     80.6% 0.00in /  0mm 512 W/m2
09:54 71.7 °F /  22.1 °C 65 °F /  18.3 °C 29.91in /  1012.8hPa Calm     79.6% 0.00in /  0mm 496 W/m2
09:59 72 °F /  22.2 °C 65.1 °F /  18.4 °C 29.91in /  1012.8hPa Calm     78.8% 0.00in /  0mm 218 W/m2
10:04 72.1 °F /  22.3 °C 65.1 °F /  18.4 °C 29.91in /  1012.8hPa Calm     78.5% 0.00in /  0mm 497 W/m2
10:09 72.4 °F /  22.4 °C 65.5 °F /  18.6 °C 29.92in /  1013.1hPa Calm     78.8% 0.00in /  0mm 497 W/m2
10:14 73.1 °F /  22.8 °C 65.4 °F /  18.6 °C 29.92in /  1013.1hPa Calm     77% 0.00in /  0mm 499 W/m2
10:19 73.7 °F /  23.2 °C 66 °F /  18.9 °C 29.92in /  1013.1hPa Calm     76.7% 0.00in /  0mm 506 W/m2
10:24 74.3 °F /  23.5 °C 65.8 °F /  18.8 °C 29.92in /  1013.1hPa Calm     74.7% 0.00in /  0mm 517 W/m2
10:29 74.9 °F /  23.8 °C 66.3 °F /  19.1 °C 29.92in /  1013.1hPa Calm     74.7% 0.00in /  0mm 527 W/m2
10:34 75.3 °F /  24.1 °C 66.3 °F /  19.1 °C 29.91in /  1012.8hPa Calm     73.5% 0.00in /  0mm 536 W/m2
10:39 75.8 °F /  24.3 °C 66.2 °F /  19 °C 29.91in /  1012.8hPa Calm     72.1% 0.00in /  0mm 545 W/m2
10:44 76.3 °F /  24.6 °C 66.2 °F /  19 °C 29.91in /  1012.8hPa Calm     71% 0.00in /  0mm 554 W/m2
10:49 76.4 °F /  24.7 °C 65.7 °F /  18.7 °C 29.91in /  1012.8hPa Calm     69.5% 0.00in /  0mm 563 W/m2
10:54 76.7 °F /  24.8 °C 65.9 °F /  18.8 °C 29.91in /  1012.8hPa Calm     69.3% 0.00in /  0mm 568 W/m2
10:59 77.1 °F /  25.1 °C 66.4 °F /  19.1 °C 29.91in /  1012.8hPa Calm     69.6% 0.00in /  0mm 575 W/m2
11:04 77.3 °F /  25.2 °C 66.4 °F /  19.1 °C 29.91in /  1012.8hPa Calm     68.9% 0.00in /  0mm 577 W/m2
11:09 77.7 °F /  25.4 °C 66.4 °F /  19.1 °C 29.90in /  1012.4hPa NW 0.1mph /  0.2km/h 2mph /  3.2km/h 68.3% 0.00in /  0mm 520 W/m2
11:14 77.8 °F /  25.4 °C 66 °F /  18.9 °C 29.90in /  1012.4hPa Calm   2mph /  3.2km/h 67% 0.00in /  0mm 188 W/m2
11:19 77.9 °F /  25.5 °C 65.8 °F /  18.8 °C 29.90in /  1012.4hPa Calm   2mph /  3.2km/h 66.3% 0.00in /  0mm 220 W/m2
11:24 77.9 °F /  25.5 °C 66.2 °F /  19 °C 29.90in /  1012.4hPa WNW 0.2mph /  0.3km/h 3mph /  4.8km/h 67.2% 0.00in /  0mm 420 W/m2
11:29 77.8 °F /  25.4 °C 66.2 °F /  19 °C 29.90in /  1012.4hPa Calm   3mph /  4.8km/h 67.5% 0.00in /  0mm 496 W/m2
11:34 77.8 °F /  25.4 °C 66 °F /  18.9 °C 29.90in /  1012.4hPa Calm   3mph /  4.8km/h 67.2% 0.00in /  0mm 422 W/m2
11:39 78.1 °F /  25.6 °C 66.2 °F /  19 °C 29.90in /  1012.4hPa Calm   1mph /  1.6km/h 66.9% 0.00in /  0mm 422 W/m2
11:44 78.3 °F /  25.7 °C 65.7 °F /  18.7 °C 29.90in /  1012.4hPa WNW 0.1mph /  0.2km/h 3mph /  4.8km/h 65.3% 0.00in /  0mm 367 W/m2
11:49 78.3 °F /  25.7 °C 65.4 °F /  18.6 °C 29.90in /  1012.4hPa Calm   3mph /  4.8km/h 64.7% 0.00in /  0mm 367 W/m2
11:54 78.2 °F /  25.7 °C 65.6 °F /  18.7 °C 29.90in /  1012.4hPa Calm   3mph /  4.8km/h 65.2% 0.00in /  0mm 128 W/m2
11:59 78.3 °F /  25.7 °C 65.5 °F /  18.6 °C 29.89in /  1012.1hPa Calm   3mph /  4.8km/h 64.7% 0.00in /  0mm 211 W/m2
12:00 78.4 °F /  25.8 °C 66.1 °F /  18.9 °C 29.89in /  1012.1hPa Calm   3mph /  4.8km/h 66% 0.00in /  0mm 179 W/m2
12:09 78.7 °F /  25.9 °C 66.1 °F /  18.9 °C 29.89in /  1012.1hPa Calm     65.4% 0.00in /  0mm 485 W/m2
12:14 78.7 °F /  25.9 °C 65.7 °F /  18.7 °C 29.89in /  1012.1hPa Calm     64.3% 0.00in /  0mm 663 W/m2
12:19 78.8 °F /  26 °C 66.1 °F /  18.9 °C 29.89in /  1012.1hPa WSW 0.1mph /  0.2km/h 3mph /  4.8km/h 65% 0.00in /  0mm 666 W/m2
12:24 78.9 °F /  26.1 °C 65.5 °F /  18.6 °C 29.89in /  1012.1hPa WSW 0.1mph /  0.2km/h 4mph /  6.4km/h 63.4% 0.00in /  0mm 679 W/m2
12:29 78.8 °F /  26 °C 65.3 °F /  18.5 °C 29.89in /  1012.1hPa West 0.6mph /  1km/h 4mph /  6.4km/h 63.2% 0.00in /  0mm 571 W/m2
12:34 78.8 °F /  26 °C 64.9 °F /  18.3 °C 29.88in /  1011.7hPa West 0.8mph /  1.3km/h 6mph /  9.7km/h 62.5% 0.00in /  0mm 295 W/m2
12:39 78.9 °F /  26.1 °C 65.3 °F /  18.5 °C 29.88in /  1011.7hPa West 0.1mph /  0.2km/h 6mph /  9.7km/h 63.2% 0.00in /  0mm 151 W/m2
12:44 78.9 °F /  26.1 °C 65.4 °F /  18.6 °C 29.88in /  1011.7hPa West 0.5mph /  0.8km/h 6mph /  9.7km/h 63.2% 0.00in /  0mm 202 W/m2
12:49 79 °F /  26.1 °C 65.5 °F /  18.6 °C 29.88in /  1011.7hPa WSW 1mph /  1.6km/h 6mph /  9.7km/h 63.2% 0.00in /  0mm 234 W/m2
12:54 79.1 °F /  26.2 °C 65.8 °F /  18.8 °C 29.88in /  1011.7hPa SW 0.7mph /  1.1km/h 6mph /  9.7km/h 63.8% 0.00in /  0mm 241 W/m2
12:59 79.1 °F /  26.2 °C 65.6 °F /  18.7 °C 29.87in /  1011.4hPa WSW 0.8mph /  1.3km/h 6mph /  9.7km/h 63.3% 0.00in /  0mm 269 W/m2
13:04 79.1 °F /  26.2 °C 65.8 °F /  18.8 °C 29.87in /  1011.4hPa Calm   6mph /  9.7km/h 63.8% 0.00in /  0mm 301 W/m2
13:09 79.1 °F /  26.2 °C 65.8 °F /  18.8 °C 29.87in /  1011.4hPa WSW 0.3mph /  0.5km/h 3mph /  4.8km/h 63.8% 0.00in /  0mm 295 W/m2
13:14 79.1 °F /  26.2 °C 65.7 °F /  18.7 °C 29.86in /  1011.1hPa West 0.7mph /  1.1km/h 4mph /  6.4km/h 63.5% 0.00in /  0mm 295 W/m2
13:19 79.2 °F /  26.2 °C 65.9 °F /  18.8 °C 29.86in /  1011.1hPa West 0.5mph /  0.8km/h 4mph /  6.4km/h 63.8% 0.00in /  0mm 98 W/m2
13:24 79.2 °F /  26.2 °C 65.9 °F /  18.8 °C 29.86in /  1011.1hPa West 0.5mph /  0.8km/h 4mph /  6.4km/h 63.8% 0.00in /  0mm 181 W/m2
13:29 79.3 °F /  26.3 °C 65.8 °F /  18.8 °C 29.86in /  1011.1hPa WSW 2mph /  3.2km/h 9mph /  14.5km/h 63.4% 0.00in /  0mm 137 W/m2
13:34 79.3 °F /  26.3 °C 65.4 °F /  18.6 °C 29.85in /  1010.7hPa WSW 1.3mph /  2.1km/h 9mph /  14.5km/h 62.5% 0.00in /  0mm 183 W/m2
13:39 79.4 °F /  26.3 °C 65.9 °F /  18.8 °C 29.85in /  1010.7hPa WSW 1mph /  1.6km/h 7mph /  11.3km/h 63.4% 0.00in /  0mm 156 W/m2
13:44 79.4 °F /  26.3 °C 65.8 °F /  18.8 °C 29.85in /  1010.7hPa WSW 1.5mph /  2.4km/h 7mph /  11.3km/h 63% 0.00in /  0mm 158 W/m2
13:49 79.6 °F /  26.4 °C 66.1 °F /  18.9 °C 29.85in /  1010.7hPa WSW 0.7mph /  1.1km/h 7mph /  11.3km/h 63.3% 0.00in /  0mm 139 W/m2
13:54 79.7 °F /  26.5 °C 65.2 °F /  18.4 °C 29.85in /  1010.7hPa WSW 0.7mph /  1.1km/h 7mph /  11.3km/h 61.3% 0.00in /  0mm 176 W/m2
13:59 79.7 °F /  26.5 °C 65.4 °F /  18.6 °C 29.85in /  1010.7hPa WSW 0.6mph /  1km/h 7mph /  11.3km/h 61.6% 0.00in /  0mm 193 W/m2
14:04 79.7 °F /  26.5 °C 64.9 °F /  18.3 °C 29.85in /  1010.7hPa WSW 1.2mph /  1.9km/h 7mph /  11.3km/h 60.7% 0.00in /  0mm 221 W/m2
14:09 79.5 °F /  26.4 °C 65.3 °F /  18.5 °C 29.85in /  1010.7hPa Calm   4mph /  6.4km/h 61.9% 0.00in /  0mm 207 W/m2
14:14 79.4 °F /  26.3 °C 65.8 °F /  18.8 °C 29.85in /  1010.7hPa Calm   4mph /  6.4km/h 63.3% 0.00in /  0mm 163 W/m2
14:19 79.3 °F /  26.3 °C 65.8 °F /  18.8 °C 29.85in /  1010.7hPa Calm   4mph /  6.4km/h 63.4% 0.00in /  0mm 163 W/m2
14:24 79.2 °F /  26.2 °C 65.3 °F /  18.5 °C 29.85in /  1010.7hPa Calm   4mph /  6.4km/h 62.7% 0.00in /  0mm 294 W/m2
14:29 79.1 °F /  26.2 °C 64.7 °F /  18.2 °C 29.85in /  1010.7hPa Calm   4mph /  6.4km/h 61.5% 0.00in /  0mm 197 W/m2
14:34 79.1 °F /  26.2 °C 64.6 °F /  18.1 °C 29.85in /  1010.7hPa Calm   4mph /  6.4km/h 61.3% 0.00in /  0mm 163 W/m2
14:39 79.1 °F /  26.2 °C 64.9 °F /  18.3 °C 29.85in /  1010.7hPa Calm     61.9% 0.00in /  0mm 151 W/m2
14:44 79 °F /  26.1 °C 65.1 °F /  18.4 °C 29.84in /  1010.4hPa Calm     62.5% 0.00in /  0mm 151 W/m2
14:49 78.9 °F /  26.1 °C 64.9 °F /  18.3 °C 29.84in /  1010.4hPa Calm     62.3% 0.00in /  0mm 156 W/m2
14:54 78.9 °F /  26.1 °C 65.5 °F /  18.6 °C 29.84in /  1010.4hPa WSW 0.2mph /  0.3km/h 3mph /  4.8km/h 63.5% 0.00in /  0mm 172 W/m2
14:59 79 °F /  26.1 °C 65.6 °F /  18.7 °C 29.84in /  1010.4hPa Calm   3mph /  4.8km/h 63.5% 0.00in /  0mm 155 W/m2
15:04 79 °F /  26.1 °C 65.4 °F /  18.6 °C 29.84in /  1010.4hPa Calm   3mph /  4.8km/h 63.2% 0.00in /  0mm 158 W/m2
15:09 78.9 °F /  26.1 °C 65.3 °F /  18.5 °C 29.84in /  1010.4hPa Calm   2mph /  3.2km/h 63.1% 0.00in /  0mm 121 W/m2
15:14 78.8 °F /  26 °C 65.3 °F /  18.5 °C 29.84in /  1010.4hPa WSW 0.1mph /  0.2km/h 2mph /  3.2km/h 63.2% 0.00in /  0mm 134 W/m2
15:19 78.8 °F /  26 °C 66 °F /  18.9 °C 29.84in /  1010.4hPa Calm   2mph /  3.2km/h 64.8% 0.00in /  0mm 311 W/m2
15:24 78.9 °F /  26.1 °C 66.2 °F /  19 °C 29.84in /  1010.4hPa Calm   2mph /  3.2km/h 65.2% 0.00in /  0mm 153 W/m2
15:29 79.1 °F /  26.2 °C 66.4 °F /  19.1 °C 29.84in /  1010.4hPa Calm   2mph /  3.2km/h 65.2% 0.00in /  0mm 183 W/m2
15:34 79.1 °F /  26.2 °C 65.7 °F /  18.7 °C 29.84in /  1010.4hPa WSW 0.1mph /  0.2km/h 2mph /  3.2km/h 63.7% 0.00in /  0mm 181 W/m2
15:39 79.1 °F /  26.2 °C 65.8 °F /  18.8 °C 29.83in /  1010hPa Calm   1mph /  1.6km/h 63.8% 0.00in /  0mm 116 W/m2
15:44 79 °F /  26.1 °C 66.2 °F /  19 °C 29.84in /  1010.4hPa WSW 0.3mph /  0.5km/h 3mph /  4.8km/h 64.8% 0.00in /  0mm 102 W/m2
15:49 78.9 °F /  26.1 °C 66.2 °F /  19 °C 29.84in /  1010.4hPa WSW 0.1mph /  0.2km/h 3mph /  4.8km/h 65.1% 0.00in /  0mm 95 W/m2
15:54 78.9 °F /  26.1 °C 65.8 °F /  18.8 °C 29.84in /  1010.4hPa WSW 0.3mph /  0.5km/h 4mph /  6.4km/h 64.3% 0.00in /  0mm 120 W/m2
15:59 78.7 °F /  25.9 °C 66 °F /  18.9 °C 29.84in /  1010.4hPa WSW 0.3mph /  0.5km/h 5mph /  8km/h 65% 0.00in /  0mm 120 W/m2
16:00 78.7 °F /  25.9 °C 66 °F /  18.9 °C 29.84in /  1010.4hPa Calm   5mph /  8km/h 65% 0.00in /  0mm 109 W/m2
16:09 78.6 °F /  25.9 °C 65.6 °F /  18.7 °C 29.84in /  1010.4hPa WSW 0.7mph /  1.1km/h 3mph /  4.8km/h 64.5% 0.00in /  0mm 63 W/m2
16:14 78.4 °F /  25.8 °C 65.4 °F /  18.6 °C 29.84in /  1010.4hPa Calm   3mph /  4.8km/h 64.4% 0.00in /  0mm 46 W/m2
16:19 78.3 °F /  25.7 °C 65.6 °F /  18.7 °C 29.84in /  1010.4hPa Calm   3mph /  4.8km/h 65.2% 0.00in /  0mm 35 W/m2
16:24 78.1 °F /  25.6 °C 65.8 °F /  18.8 °C 29.84in /  1010.4hPa Calm   3mph /  4.8km/h 66% 0.00in /  0mm 33 W/m2
16:28 77.9 °F /  25.5 °C 65.8 °F /  18.8 °C 29.83in /  1010hPa WSW 0.5mph /  0.8km/h 4mph /  6.4km/h 66.3% 0.00in /  0mm 30 W/m2
Hartford County Weather
Compliments of Weather Underground - 2 mb